Weather reports worldwide

Advertisment
Tarfala, Sweden (2029): temperature & dewpoint: 14.10.2019 04:00:00 - 20.10.2019 04:00:00 (CEST)Tarfala, Sweden (2029): wind speed & gusts: 14.10.2019 04:00:00 - 20.10.2019 04:00:00 (CEST)Tarfala, Sweden (2029): wind direction: 14.10.2019 04:00:00 - 20.10.2019 04:00:00 (CEST)
Date & Time tt [°C] td [°C] ff [km/h] ff [kn] fx [km/h] fx [kn] dd
20.10.2019 04:00:00 -11,5 -18,9 3 2 11 6 N
20.10.2019 03:00:00 -11,3 -19,2 5 3 17 9 NNW
20.10.2019 02:00:00 -13,6 -20,1 9 5 11 6 NW
20.10.2019 01:00:00 -11,9 -18,9 6 4 12 6 NNW
20.10.2019 00:00:00 -11,4 -18,9 5 3 12 6 N
19.10.2019 23:00:00 -12,1 -19,5 5 3 9 5 NW
19.10.2019 22:00:00 -12,0 -18,6 4 2 11 6 NNW
19.10.2019 21:00:00 -12,9 -19,0 6 3 13 7 NNW
19.10.2019 20:00:00 -10,6 -18,6 5 3 16 8 ESE
19.10.2019 19:00:00 -11,0 -18,3 12 6 22 12 NW
19.10.2019 18:00:00 -9,2 -17,0 10 5 16 8 NW
19.10.2019 17:00:00 -11,5 -18,3 3 2 13 7 NW
19.10.2019 16:00:00 -7,8 -17,9 11 6 22 12 N
19.10.2019 15:00:00 -8,6 -16,0 12 6 22 12 NW
19.10.2019 14:00:00 -8,1 -14,9 11 6 21 11 WNW
19.10.2019 13:00:00 -8,0 -12,2 4 2 14 7 NW
19.10.2019 12:00:00 -8,4 -12,5 11 6 19 11 NW
19.10.2019 11:00:00 -6,7 -10,9 13 7 20 11 NNE
19.10.2019 10:00:00 -6,7 -10,4 16 9 22 12 NNE
19.10.2019 09:00:00 -6,6 -9,8 16 9 27 15 NE
19.10.2019 08:00:00 -6,5 -9,1 19 10 29 15 NE
19.10.2019 07:00:00 -6,2 -8,6 13 7 27 15 NE
19.10.2019 06:00:00 -6,4 -7,5 11 6 27 15 NE
19.10.2019 05:00:00 -6,5 -7,3 6 3 12 6 SSW
19.10.2019 04:00:00 -5,9 -6,6 10 6 20 11 SSE
19.10.2019 03:00:00 -5,5 -6,2 13 7 16 9 SSE
19.10.2019 02:00:00 -5,0 -5,5 10 6 14 7 SE
19.10.2019 01:00:00 -5,1 -5,8 4 2 6 3 SSE
19.10.2019 00:00:00 -5,0 -5,8 3 2 6 3 NNW
18.10.2019 23:00:00 -4,9 -5,7 3 1 4 2 NNW
18.10.2019 22:00:00 -4,6 -5,3 0 0 2 1 N
18.10.2019 21:00:00 -4,6 -5,3 2 1 4 2 SSE
18.10.2019 20:00:00 -4,5 -5,3 0 0 6 4 N
18.10.2019 19:00:00 -4,4 -5,2 3 1 5 3 WNW
18.10.2019 18:00:00 -4,1 -5,2 2 1 6 3 NNE
18.10.2019 17:00:00 -4,6 -5,8 5 3 7 4 NNW
18.10.2019 16:00:00 -4,2 -5,3 0 0 8 4 N
18.10.2019 15:00:00 -3,3 -5,0 5 3 7 4 NW
18.10.2019 14:00:00 -3,3 -5,3 4 2 8 4 NNW
18.10.2019 13:00:00 -3,6 -5,4 6 3 8 4 NNW
18.10.2019 12:00:00 -3,7 -5,5 6 4 10 5 NNW
18.10.2019 11:00:00 -3,8 -5,8 2 1 10 6 ENE
18.10.2019 10:00:00 -4,7 -6,2 4 2 8 4 NW
18.10.2019 09:00:00 -6,1 -7,0 8 4 11 6 NNW
18.10.2019 08:00:00 -6,1 -6,9 5 3 9 5 NNW
18.10.2019 07:00:00 -5,8 -6,9 4 2 12 6 ESE
18.10.2019 06:00:00 -5,5 -6,3 4 2 11 6 E
18.10.2019 05:00:00 -6,3 -7,1 3 1 5 3 NE
18.10.2019 04:00:00 -6,9 -8,0 3 2 6 3 SSE
18.10.2019 03:00:00 -6,9 -8,0 2 1 6 3 SSW
18.10.2019 02:00:00 -6,7 -7,6 2 1 5 3 NNE
18.10.2019 01:00:00 -6,7 -7,5 2 1 8 4 SE
18.10.2019 00:00:00 -6,7 -7,5 5 3 12 7 SSE
17.10.2019 23:00:00 -6,4 -7,8 6 3 15 8 SSE
17.10.2019 22:00:00 -6,6 -9,8 3 2 8 4 NW
17.10.2019 21:00:00 -7,5 -10,4 6 3 9 5 SE
17.10.2019 20:00:00 -6,7 -12,6 4 2 12 6 NNW
17.10.2019 19:00:00 -7,7 -14,5 4 2 9 5 N
17.10.2019 18:00:00 -7,3 -14,6 7 4 14 8 N
17.10.2019 17:00:00 -8,1 -14,9 8 4 14 7 NNW
17.10.2019 16:00:00 -7,4 -16,3 4 2 14 7 N
17.10.2019 15:00:00 -9,3 -16,5 4 2 10 6 NW
17.10.2019 14:00:00 -8,3 -15,7 9 5 12 7 NNW
17.10.2019 13:00:00 -7,4 -13,2 5 3 15 8 N
17.10.2019 12:00:00 -7,0 -12,5 4 2 12 6 NW
17.10.2019 11:00:00 -9,1 -16,7 10 6 14 7 NNW
17.10.2019 10:00:00 -7,5 -19,1 5 3 13 7 N
17.10.2019 09:00:00 -7,4 -19,9 5 3 9 5 NNW
17.10.2019 08:00:00 -9,5 -20,3 7 4 16 8 NNW
17.10.2019 07:00:00 -8,3 -19,8 4 2 13 7 ESE
17.10.2019 06:00:00 -11,2 -18,9 9 5 16 9 NNW
17.10.2019 05:00:00 -10,3 -20,2 9 5 14 8 NNW
17.10.2019 04:00:00 -7,1 -20,0 2 1 11 6 ESE
17.10.2019 03:00:00 -8,4 -20,2 6 3 11 6 NNW
17.10.2019 02:00:00 -6,7 -18,4 2 1 10 5 E
17.10.2019 01:00:00 -7,7 -18,4 9 5 14 7 NNW
17.10.2019 00:00:00 -7,0 -18,0 3 1 10 5 E
16.10.2019 23:00:00 -7,0 -17,8 7 4 11 6 N
16.10.2019 22:00:00 -7,1 -17,6 4 2 16 9 N
16.10.2019 21:00:00 -9,2 -17,7 8 4 - - NNW
16.10.2019 20:00:00 -9,1 -18,3 6 4 14 7 NNW
16.10.2019 19:00:00 -6,9 -16,6 7 4 10 5 NNW
16.10.2019 18:00:00 -7,1 -15,8 5 3 13 7 NW
16.10.2019 17:00:00 -7,1 -15,5 8 4 11 6 NNW
16.10.2019 16:00:00 -7,1 -14,4 6 3 13 7 NNW
16.10.2019 15:00:00 -7,1 -14,6 7 4 12 7 NW
16.10.2019 14:00:00 -6,8 -13,5 8 4 11 6 NW
16.10.2019 13:00:00 -7,8 -14,0 8 5 10 6 NW
16.10.2019 12:00:00 -4,9 -13,7 4 2 9 5 NNW
16.10.2019 11:00:00 -5,2 -14,2 3 2 10 5 N
16.10.2019 10:00:00 -6,7 -15,4 5 3 12 7 NNW
16.10.2019 09:00:00 -6,5 -15,2 7 4 10 5 N
16.10.2019 08:00:00 -8,3 -15,3 7 4 11 6 NNW
16.10.2019 07:00:00 -7,4 -15,3 3 1 9 5 NNW
16.10.2019 06:00:00 -6,9 -14,6 8 4 13 7 NNW
16.10.2019 05:00:00 -8,7 -14,3 5 3 15 8 NW
16.10.2019 04:00:00 -7,6 -14,0 5 3 11 6 NNW
16.10.2019 03:00:00 -9,6 -14,6 7 4 11 6 NNW
16.10.2019 02:00:00 -8,7 -13,7 2 1 12 6 NNW
16.10.2019 01:00:00 -8,1 -12,3 8 4 13 7 NNW
16.10.2019 00:00:00 -7,6 -12,5 6 3 12 6 N
15.10.2019 23:00:00 -6,9 -11,4 5 3 15 8 N
15.10.2019 22:00:00 -8,8 -11,2 9 5 15 8 NNW
15.10.2019 21:00:00 -8,6 -11,7 7 4 16 8 NNW
15.10.2019 20:00:00 -6,9 -9,9 8 4 20 11 NNW
15.10.2019 19:00:00 -5,1 -8,7 17 9 23 13 NW
15.10.2019 18:00:00 -4,0 -8,1 11 6 22 12 NW
15.10.2019 17:00:00 -5,1 -9,0 8 5 15 8 NNW
15.10.2019 16:00:00 -5,7 -7,7 9 5 16 8 SSE
15.10.2019 15:00:00 -3,7 -6,5 8 4 27 15 SE
15.10.2019 14:00:00 -3,5 -6,6 13 7 19 11 N
15.10.2019 13:00:00 -4,6 -8,5 4 2 8 4 S
15.10.2019 12:00:00 -3,9 -8,4 5 3 11 6 WNW
15.10.2019 11:00:00 -5,4 -9,8 4 2 14 8 S
15.10.2019 10:00:00 -5,8 -10,4 10 6 15 8 N
15.10.2019 09:00:00 -6,4 -12,5 3 2 14 8 E
15.10.2019 08:00:00 -8,9 -14,1 4 2 14 8 N
15.10.2019 07:00:00 -6,5 -12,8 4 2 11 6 NNW
15.10.2019 06:00:00 -7,7 -12,4 8 5 19 11 NNW
15.10.2019 05:00:00 -7,4 -11,8 6 3 15 8 N
15.10.2019 04:00:00 -6,7 -10,9 4 2 22 12 NW
15.10.2019 03:00:00 -6,8 -11,9 13 7 23 12 NNW
15.10.2019 02:00:00 -8,0 -13,0 4 2 11 6 NNW
15.10.2019 01:00:00 -6,5 -13,0 10 6 18 10 NNE
15.10.2019 00:00:00 -7,1 -12,6 9 5 14 8 N
14.10.2019 23:00:00 -8,4 -14,6 7 4 16 9 N
14.10.2019 22:00:00 -7,8 -14,2 10 5 22 12 NNW
14.10.2019 21:00:00 -5,6 -13,2 16 9 26 14 N
14.10.2019 20:00:00 -7,3 -13,3 6 3 18 10 N
14.10.2019 19:00:00 -7,4 -12,8 3 2 17 9 E
14.10.2019 18:00:00 -6,8 -13,3 11 6 14 8 NNE
14.10.2019 17:00:00 -8,7 -13,9 5 3 11 6 NW
14.10.2019 16:00:00 -7,9 -12,2 2 1 8 4 NNW
14.10.2019 15:00:00 -7,4 -11,4 4 2 12 6 N
14.10.2019 14:00:00 -8,6 -12,4 7 4 11 6 NNW
14.10.2019 13:00:00 -7,1 -11,6 6 3 9 5 NNW
14.10.2019 12:00:00 -9,0 -13,1 5 3 10 5 NW
14.10.2019 11:00:00 -8,1 -12,3 4 2 11 6 SE
14.10.2019 10:00:00 -10,3 -13,1 4 2 9 5 NNW
14.10.2019 09:00:00 - - - - - - -
14.10.2019 08:00:00 -11,3 -13,2 5 3 10 6 NNW
14.10.2019 07:00:00 -8,7 -9,9 5 3 10 6 N
14.10.2019 06:00:00 -9,3 -10,4 4 2 6 4 NW
14.10.2019 05:00:00 -8,6 -9,8 2 1 10 5 S
14.10.2019 04:00:00 -8,5 -10,1 8 4 9 5 NW

tt = temperature
td = dewpoint
ff = wind speed
fx = gusts
dd = wind direction

Next stations